createdAt,value
2022-10-07T00:01:14.437Z,14.10
2022-10-07T00:08:15.740Z,14.10
2022-10-07T00:10:43.432Z,14.20
2022-10-07T00:13:12.783Z,14.10
2022-10-07T00:15:40.155Z,14.10
2022-10-07T00:18:07.341Z,14.10
2022-10-07T00:20:38.322Z,14.20
2022-10-07T00:23:05.662Z,14.20
2022-10-07T00:25:36.781Z,14.10
2022-10-07T00:33:12.582Z,14.20
2022-10-07T00:35:42.643Z,14.20
2022-10-07T00:38:11.826Z,14.30
2022-10-07T00:40:41.134Z,14.20
2022-10-07T00:43:27.337Z,14.20
2022-10-07T00:45:58.534Z,14.20
2022-10-07T00:48:31.363Z,14.20
2022-10-07T00:55:33.114Z,14.20
2022-10-07T00:58:06.223Z,14.10
2022-10-07T01:00:33.526Z,14.10
2022-10-07T01:03:01.366Z,14.10
2022-10-07T01:05:28.736Z,14.10
2022-10-07T01:07:59.315Z,14.10
2022-10-07T01:10:36.046Z,14.00
2022-10-07T01:18:17.306Z,14.10
2022-10-07T01:20:53.364Z,14.10
2022-10-07T01:23:48.374Z,14.10
2022-10-07T01:26:48.845Z,14.10
2022-10-07T01:29:22.284Z,14.10
2022-10-07T01:31:55.196Z,14.10
2022-10-07T01:34:26.024Z,14.10
2022-10-07T01:41:59.391Z,14.10
2022-10-07T01:44:29.805Z,14.20
2022-10-07T01:46:58.504Z,14.10
2022-10-07T01:49:26.516Z,14.10
2022-10-07T01:52:19.375Z,14.10
2022-10-07T01:55:07.155Z,14.10
2022-10-07T02:05:41.506Z,14.00
2022-10-07T02:08:23.357Z,14.00
2022-10-07T02:11:11.207Z,14.10
2022-10-07T02:13:44.205Z,14.10
2022-10-07T02:16:26.734Z,14.10
2022-10-07T02:18:55.778Z,14.00
2022-10-07T02:21:28.008Z,14.10
2022-10-07T02:27:01.457Z,13.90
2022-10-07T02:29:33.853Z,13.90
2022-10-07T02:32:03.675Z,13.90
2022-10-07T02:34:32.069Z,13.90
2022-10-07T02:37:05.531Z,13.90
2022-10-07T02:39:34.635Z,13.90
2022-10-07T02:42:10.079Z,13.90
2022-10-07T02:47:23.666Z,13.90
2022-10-07T02:49:53.876Z,13.90
2022-10-07T02:52:24.836Z,13.90
2022-10-07T02:54:57.369Z,14.00
2022-10-07T02:57:27.066Z,13.90
2022-10-07T02:59:58.129Z,13.80
2022-10-07T03:02:31.658Z,13.90
2022-10-07T03:07:47.218Z,13.80
2022-10-07T03:10:15.800Z,13.80
2022-10-07T03:12:49.719Z,13.80
2022-10-07T03:15:17.966Z,13.80
2022-10-07T03:17:46.759Z,13.70
2022-10-07T03:20:15.841Z,13.70
2022-10-07T03:22:46.489Z,13.70
2022-10-07T03:30:24.344Z,13.70
2022-10-07T03:32:53.129Z,13.80
2022-10-07T03:35:30.177Z,13.80
2022-10-07T03:37:58.188Z,13.80
2022-10-07T03:40:25.807Z,13.80
2022-10-07T03:42:52.946Z,13.80
2022-10-07T03:45:21.444Z,13.80
2022-10-07T03:52:49.958Z,13.70
2022-10-07T03:55:19.079Z,13.60
2022-10-07T03:57:58.557Z,13.50
2022-10-07T04:00:27.807Z,13.60
2022-10-07T04:02:55.569Z,13.60
2022-10-07T04:05:23.952Z,13.60
2022-10-07T04:07:54.036Z,13.50
2022-10-07T04:14:34.665Z,13.30
2022-10-07T04:17:01.896Z,13.30
2022-10-07T04:19:29.966Z,13.40
2022-10-07T04:21:58.438Z,13.40
2022-10-07T04:24:29.346Z,13.30
2022-10-07T04:26:56.686Z,13.20
2022-10-07T04:29:24.099Z,13.20
2022-10-07T04:34:32.010Z,13.30
2022-10-07T04:37:00.426Z,13.20
2022-10-07T04:39:49.076Z,13.20
2022-10-07T04:42:29.208Z,13.30
2022-10-07T04:44:56.387Z,13.40
2022-10-07T04:47:24.666Z,13.40
2022-10-07T04:49:53.886Z,13.40
2022-10-07T04:52:22.134Z,13.40
2022-10-07T04:59:54.918Z,13.20
2022-10-07T05:02:26.118Z,13.00
2022-10-07T05:04:54.338Z,13.10
2022-10-07T05:07:27.359Z,12.90
2022-10-07T05:09:54.585Z,12.90
2022-10-07T05:12:22.406Z,12.90
2022-10-07T05:14:52.399Z,12.90
2022-10-07T05:17:32.514Z,12.90
2022-10-07T05:25:10.425Z,13.00
2022-10-07T05:27:40.929Z,12.80
2022-10-07T05:30:12.458Z,12.80
2022-10-07T05:32:39.578Z,12.90
2022-10-07T05:35:08.028Z,12.90
2022-10-07T05:37:37.128Z,12.90
2022-10-07T05:40:05.254Z,13.00
2022-10-07T05:45:41.160Z,13.10
2022-10-07T05:48:08.737Z,13.10
2022-10-07T05:50:36.206Z,13.10
2022-10-07T05:53:04.135Z,13.10
2022-10-07T05:55:35.739Z,13.00
2022-10-07T05:58:07.058Z,13.00
2022-10-07T06:00:34.759Z,12.90
2022-10-07T06:03:03.557Z,12.90
2022-10-07T06:14:11.897Z,12.90
2022-10-07T06:16:39.266Z,12.90
2022-10-07T06:19:21.956Z,12.90
2022-10-07T06:21:49.513Z,13.00
2022-10-07T06:24:17.376Z,13.10
2022-10-07T06:26:45.208Z,13.20
2022-10-07T06:31:57.146Z,13.20
2022-10-07T06:34:25.250Z,13.20
2022-10-07T06:36:55.408Z,13.30
2022-10-07T06:39:22.685Z,13.30
2022-10-07T06:41:52.358Z,13.40
2022-10-07T06:44:20.358Z,13.40
2022-10-07T06:46:48.075Z,13.50
2022-10-07T06:52:56.166Z,13.60
2022-10-07T06:55:26.288Z,13.60
2022-10-07T06:57:54.256Z,13.60
2022-10-07T07:00:22.345Z,13.60
2022-10-07T07:02:50.755Z,13.60
2022-10-07T07:05:18.788Z,13.70
2022-10-07T07:07:46.284Z,13.70
2022-10-07T07:14:55.141Z,13.80
2022-10-07T07:17:22.393Z,14.10
2022-10-07T07:19:50.066Z,14.30
2022-10-07T07:22:17.676Z,14.50
2022-10-07T07:24:46.065Z,14.70
2022-10-07T07:27:14.646Z,14.90
2022-10-07T07:29:45.667Z,15.00
2022-10-07T07:37:21.375Z,15.30
2022-10-07T07:39:51.235Z,15.60
2022-10-07T07:42:20.276Z,15.80
2022-10-07T07:44:49.807Z,16.00
2022-10-07T07:47:17.300Z,16.10
2022-10-07T07:49:45.668Z,16.20
2022-10-07T07:52:17.077Z,16.40
2022-10-07T07:57:32.715Z,16.70
2022-10-07T08:00:05.118Z,17.00
2022-10-07T08:02:32.856Z,17.20
2022-10-07T08:05:00.476Z,17.40
2022-10-07T08:07:32.578Z,17.60
2022-10-07T08:10:00.258Z,17.70
2022-10-07T08:12:27.559Z,17.90
2022-10-07T08:19:19.518Z,17.90
2022-10-07T08:21:46.717Z,18.10
2022-10-07T08:24:20.815Z,18.20
2022-10-07T08:26:57.666Z,18.30
2022-10-07T08:29:25.525Z,18.50
2022-10-07T08:31:52.985Z,18.80
2022-10-07T08:34:21.357Z,18.90
2022-10-07T08:42:05.058Z,19.00
2022-10-07T08:44:38.606Z,19.40
2022-10-07T08:47:17.278Z,19.40
2022-10-07T08:50:00.035Z,19.50
2022-10-07T08:52:40.608Z,19.80
2022-10-07T08:55:36.828Z,20.10
2022-10-07T08:58:32.707Z,20.30
2022-10-07T09:06:10.898Z,20.70
2022-10-07T09:08:43.335Z,20.90
2022-10-07T09:11:19.686Z,21.00
2022-10-07T09:13:51.244Z,21.20
2022-10-07T09:16:22.828Z,21.10
2022-10-07T09:18:53.525Z,20.80
2022-10-07T09:21:25.935Z,20.80
2022-10-07T09:29:35.935Z,21.50
2022-10-07T09:32:06.208Z,21.10
2022-10-07T09:34:37.665Z,21.10
2022-10-07T09:37:20.154Z,20.50
2022-10-07T09:39:49.595Z,20.90
2022-10-07T09:42:31.329Z,20.30
2022-10-07T09:48:07.173Z,20.60
2022-10-07T09:50:37.349Z,19.70
2022-10-07T09:53:08.708Z,19.40
2022-10-07T09:55:43.224Z,19.50
2022-10-07T09:58:19.706Z,19.70
2022-10-07T10:00:48.450Z,20.00
2022-10-07T10:08:43.618Z,21.40
2022-10-07T10:11:27.686Z,22.20
2022-10-07T10:13:59.937Z,22.20
2022-10-07T10:16:38.516Z,22.20
2022-10-07T10:19:21.796Z,22.00
2022-10-07T10:21:55.165Z,21.70
2022-10-07T10:30:15.418Z,20.60
2022-10-07T10:33:26.615Z,20.00
2022-10-07T10:36:02.865Z,19.80
2022-10-07T10:38:39.465Z,20.00
2022-10-07T10:41:21.107Z,19.90
2022-10-07T10:44:05.045Z,19.20
2022-10-07T10:55:03.639Z,19.20
2022-10-07T10:57:44.576Z,19.40
2022-10-07T11:00:18.825Z,19.10
2022-10-07T11:03:23.454Z,19.20
2022-10-07T11:05:53.145Z,19.70
2022-10-07T11:08:27.229Z,19.30
2022-10-07T11:11:09.334Z,19.70
2022-10-07T11:13:43.745Z,19.80
2022-10-07T11:21:48.318Z,19.80
2022-10-07T11:24:22.318Z,20.20
2022-10-07T11:26:58.210Z,20.30
2022-10-07T11:29:33.605Z,20.60
2022-10-07T11:32:08.528Z,20.40
2022-10-07T11:34:42.448Z,20.20
2022-10-07T11:42:46.644Z,20.40
2022-10-07T11:45:22.068Z,20.10
2022-10-07T11:48:01.177Z,20.30
2022-10-07T11:50:32.027Z,20.50
2022-10-07T11:53:08.310Z,20.70
2022-10-07T11:55:42.098Z,20.60
2022-10-07T12:01:26.049Z,20.20
2022-10-07T12:04:17.378Z,20.10
2022-10-07T12:07:18.245Z,20.50
2022-10-07T12:10:08.227Z,20.80
2022-10-07T12:12:48.896Z,21.00
2022-10-07T12:15:29.819Z,21.60
2022-10-07T12:22:24.645Z,21.70
2022-10-07T12:25:29.141Z,20.90
2022-10-07T12:27:58.662Z,20.90
2022-10-07T12:30:50.380Z,21.10
2022-10-07T12:33:29.048Z,21.40
2022-10-07T12:35:56.796Z,22.10
2022-10-07T12:46:18.013Z,22.90
2022-10-07T12:48:58.495Z,22.70
2022-10-07T12:51:30.008Z,22.70
2022-10-07T12:53:59.680Z,22.70
2022-10-07T12:56:30.406Z,22.80
2022-10-07T12:59:50.389Z,22.90
2022-10-07T13:08:08.400Z,23.00
2022-10-07T13:11:17.486Z,22.80
2022-10-07T13:13:55.221Z,22.90
2022-10-07T13:16:33.980Z,22.80
2022-10-07T13:19:10.936Z,22.60
2022-10-07T13:21:45.838Z,22.50
2022-10-07T13:30:05.499Z,22.60
2022-10-07T13:32:35.706Z,22.50
2022-10-07T13:35:29.389Z,22.20
2022-10-07T13:37:59.174Z,22.10
2022-10-07T13:40:34.038Z,22.00
2022-10-07T13:43:06.689Z,22.10
2022-10-07T13:48:45.643Z,22.00
2022-10-07T13:51:25.976Z,21.80
2022-10-07T13:53:58.031Z,21.50
2022-10-07T13:56:30.586Z,21.50
2022-10-07T13:58:59.198Z,21.40
2022-10-07T14:01:33.754Z,21.30
2022-10-07T14:04:18.248Z,21.40
2022-10-07T14:09:51.817Z,21.50
2022-10-07T14:12:22.797Z,21.20
2022-10-07T14:14:56.139Z,21.20
2022-10-07T14:17:34.930Z,21.40
2022-10-07T14:20:11.223Z,21.30
2022-10-07T14:22:45.079Z,21.40
2022-10-07T14:25:22.289Z,21.40
2022-10-07T14:33:25.285Z,21.30
2022-10-07T14:36:12.674Z,21.10
2022-10-07T14:38:41.728Z,21.00
2022-10-07T14:41:09.858Z,21.20
2022-10-07T14:43:39.685Z,21.20
2022-10-07T14:46:17.626Z,21.00
2022-10-07T14:48:48.494Z,20.90
2022-10-07T14:56:49.178Z,21.00
2022-10-07T14:59:24.612Z,20.90
2022-10-07T15:01:59.366Z,20.80
2022-10-07T15:04:29.190Z,20.80
2022-10-07T15:06:57.907Z,20.70
2022-10-07T15:09:30.610Z,21.00
2022-10-07T15:12:01.492Z,20.60
2022-10-07T15:19:44.308Z,20.60
2022-10-07T15:22:13.707Z,21.00
2022-10-07T15:24:41.742Z,20.80
2022-10-07T15:27:13.785Z,20.60
2022-10-07T15:29:46.925Z,20.40
2022-10-07T15:32:18.658Z,20.40
2022-10-07T15:34:54.749Z,20.30
2022-10-07T15:40:09.439Z,20.30
2022-10-07T15:42:41.148Z,19.90
2022-10-07T15:45:14.569Z,19.70
2022-10-07T15:47:44.717Z,19.50
2022-10-07T15:50:17.578Z,19.50
2022-10-07T15:52:49.485Z,19.80
2022-10-07T15:55:28.277Z,19.90
2022-10-07T16:03:10.180Z,19.50
2022-10-07T16:05:54.691Z,19.30
2022-10-07T16:08:25.664Z,19.30
2022-10-07T16:11:01.123Z,19.00
2022-10-07T16:13:31.158Z,19.10
2022-10-07T16:16:08.864Z,19.10
2022-10-07T16:18:43.856Z,19.20
2022-10-07T16:24:42.942Z,19.00
2022-10-07T16:27:15.032Z,19.00
2022-10-07T16:30:01.368Z,19.00
2022-10-07T16:32:32.298Z,19.00
2022-10-07T16:35:02.746Z,19.30
2022-10-07T16:37:30.734Z,19.20
2022-10-07T16:39:59.255Z,19.10
2022-10-07T16:42:31.556Z,19.00
2022-10-07T16:50:10.807Z,18.80
2022-10-07T16:52:38.948Z,18.80
2022-10-07T16:55:08.467Z,18.80
2022-10-07T16:57:39.095Z,18.70
2022-10-07T17:00:08.459Z,18.70
2022-10-07T17:02:36.058Z,18.60
2022-10-07T17:05:09.085Z,18.60
2022-10-07T17:10:55.647Z,18.60
2022-10-07T17:13:23.968Z,18.50
2022-10-07T17:15:52.869Z,18.30
2022-10-07T17:18:21.205Z,18.20
2022-10-07T17:20:52.807Z,18.30
2022-10-07T17:23:26.962Z,18.20
2022-10-07T17:26:12.332Z,18.20
2022-10-07T17:28:50.237Z,18.00
2022-10-07T17:35:29.129Z,17.80
2022-10-07T17:38:00.865Z,17.70
2022-10-07T17:40:32.718Z,17.60
2022-10-07T17:43:06.685Z,17.60
2022-10-07T17:45:39.706Z,17.40
2022-10-07T17:48:11.077Z,17.30
2022-10-07T17:50:43.666Z,17.20
2022-10-07T17:58:25.069Z,17.20
2022-10-07T18:00:56.651Z,16.90
2022-10-07T18:03:26.531Z,16.90
2022-10-07T18:05:58.383Z,16.90
2022-10-07T18:08:28.316Z,17.00
2022-10-07T18:10:56.902Z,17.00
2022-10-07T18:13:45.235Z,16.90
2022-10-07T18:21:23.254Z,16.80
2022-10-07T18:23:52.132Z,16.70
2022-10-07T18:26:23.013Z,16.70
2022-10-07T18:28:58.035Z,16.50
2022-10-07T18:31:28.507Z,16.50
2022-10-07T18:33:58.704Z,16.60
2022-10-07T18:39:21.836Z,16.60
2022-10-07T18:41:53.703Z,16.60
2022-10-07T18:44:25.203Z,16.60
2022-10-07T18:46:56.583Z,16.40
2022-10-07T18:49:27.485Z,16.40
2022-10-07T18:51:58.852Z,16.40
2022-10-07T18:54:32.645Z,16.40
2022-10-07T18:59:49.027Z,16.40
2022-10-07T19:02:24.641Z,16.20
2022-10-07T19:04:56.835Z,16.10
2022-10-07T19:07:26.345Z,16.20
2022-10-07T19:09:56.212Z,16.10
2022-10-07T19:12:44.555Z,16.10
2022-10-07T19:15:17.292Z,16.20
2022-10-07T19:25:32.332Z,16.20
2022-10-07T19:28:05.122Z,16.10
2022-10-07T19:30:34.207Z,16.10
2022-10-07T19:33:03.992Z,16.20
2022-10-07T19:35:36.285Z,16.20
2022-10-07T19:38:06.379Z,16.10
2022-10-07T19:40:46.515Z,16.20
2022-10-07T19:46:09.582Z,16.10
2022-10-07T19:48:40.196Z,16.10
2022-10-07T19:51:17.384Z,16.20
2022-10-07T19:53:48.925Z,16.20
2022-10-07T19:56:20.301Z,16.20
2022-10-07T19:59:01.848Z,16.20
2022-10-07T20:01:43.752Z,16.20
2022-10-07T20:09:19.347Z,16.30
2022-10-07T20:11:50.817Z,16.20
2022-10-07T20:14:20.935Z,16.20
2022-10-07T20:16:54.569Z,16.20
2022-10-07T20:19:28.666Z,16.20
2022-10-07T20:22:01.258Z,16.20
2022-10-07T20:24:30.884Z,16.20
2022-10-07T20:31:50.752Z,16.30
2022-10-07T20:34:19.483Z,16.30
2022-10-07T20:36:51.764Z,16.30
2022-10-07T20:39:39.324Z,16.30
2022-10-07T20:42:24.438Z,16.20
2022-10-07T20:44:53.315Z,16.20
2022-10-07T20:50:03.268Z,16.20
2022-10-07T20:52:34.962Z,16.10
2022-10-07T20:55:02.575Z,16.10
2022-10-07T20:57:37.677Z,16.10
2022-10-07T21:00:16.215Z,16.10
2022-10-07T21:02:45.878Z,15.90
2022-10-07T21:05:14.833Z,15.90
2022-10-07T21:10:22.938Z,16.00
2022-10-07T21:12:53.375Z,16.10
2022-10-07T21:15:22.542Z,16.30
2022-10-07T21:17:50.416Z,16.30
2022-10-07T21:20:18.870Z,16.20
2022-10-07T21:22:51.804Z,16.50
2022-10-07T21:25:18.945Z,16.60
2022-10-07T21:30:36.293Z,16.60
2022-10-07T21:33:04.173Z,16.60
2022-10-07T21:35:32.508Z,16.30
2022-10-07T21:38:03.134Z,16.40
2022-10-07T21:40:30.667Z,16.30
2022-10-07T21:43:00.733Z,16.30
2022-10-07T21:45:30.478Z,16.10
2022-10-07T21:47:59.715Z,16.00
2022-10-07T21:55:31.714Z,15.60
2022-10-07T21:58:00.593Z,15.80
2022-10-07T22:00:28.335Z,15.90
2022-10-07T22:02:57.751Z,15.90
2022-10-07T22:05:24.874Z,15.80
2022-10-07T22:08:10.453Z,15.90
2022-10-07T22:10:38.844Z,16.00
2022-10-07T22:19:39.277Z,15.90
2022-10-07T22:22:06.939Z,15.80
2022-10-07T22:24:35.521Z,15.60
2022-10-07T22:27:05.243Z,15.50
2022-10-07T22:29:34.123Z,15.50
2022-10-07T22:32:03.925Z,15.50
2022-10-07T22:34:49.505Z,15.50
2022-10-07T22:42:10.473Z,15.50
2022-10-07T22:44:38.483Z,15.40
2022-10-07T22:47:05.812Z,15.40
2022-10-07T22:49:33.124Z,15.50
2022-10-07T22:52:01.612Z,15.60
2022-10-07T22:54:30.015Z,15.50
2022-10-07T22:56:57.806Z,15.50
2022-10-07T23:04:36.006Z,15.80
2022-10-07T23:07:08.363Z,15.70
2022-10-07T23:09:38.987Z,15.80
2022-10-07T23:12:06.243Z,16.00
2022-10-07T23:14:33.593Z,16.00
2022-10-07T23:17:01.747Z,15.90
2022-10-07T23:19:30.945Z,15.70
2022-10-07T23:27:04.202Z,15.50
2022-10-07T23:29:32.294Z,15.30
2022-10-07T23:32:00.222Z,15.10
2022-10-07T23:34:28.222Z,15.00
2022-10-07T23:36:55.585Z,15.10
2022-10-07T23:39:23.236Z,15.20
2022-10-07T23:41:50.824Z,15.20
2022-10-07T23:49:28.605Z,15.20
2022-10-07T23:51:55.996Z,14.90
2022-10-07T23:54:23.254Z,14.90
2022-10-07T23:56:51.131Z,14.90
2022-10-07T23:59:23.324Z,15.00
